createdAt,value
2018-04-14T00:01:13.918Z,10.38
2018-04-14T00:03:41.428Z,10.35
2018-04-14T00:06:08.967Z,10.33
2018-04-14T00:08:36.516Z,10.30
2018-04-14T00:11:06.423Z,10.30
2018-04-14T00:13:34.015Z,10.29
2018-04-14T00:16:02.607Z,10.29
2018-04-14T00:18:31.618Z,10.28
2018-04-14T00:20:59.163Z,10.28
2018-04-14T00:23:26.746Z,10.27
2018-04-14T00:25:54.300Z,10.28
2018-04-14T00:28:22.513Z,10.29
2018-04-14T00:30:50.152Z,10.30
2018-04-14T00:33:18.586Z,10.31
2018-04-14T00:35:46.075Z,10.33
2018-04-14T00:38:13.640Z,10.35
2018-04-14T00:40:41.182Z,10.35
2018-04-14T00:43:08.750Z,10.37
2018-04-14T00:45:38.515Z,10.38
2018-04-14T00:48:06.067Z,10.39
2018-04-14T00:50:34.155Z,10.41
2018-04-14T00:53:13.475Z,10.42
2018-04-14T00:55:41.039Z,10.42
2018-04-14T00:58:08.592Z,10.44
2018-04-14T01:00:36.242Z,10.45
2018-04-14T01:03:06.356Z,10.47
2018-04-14T01:05:33.960Z,10.48
2018-04-14T01:08:01.909Z,10.50
2018-04-14T01:10:31.675Z,10.51
2018-04-14T01:12:59.218Z,10.53
2018-04-14T01:15:26.720Z,10.54
2018-04-14T01:17:55.232Z,10.55
2018-04-14T01:20:24.715Z,10.56
2018-04-14T01:22:53.373Z,10.58
2018-04-14T01:25:25.252Z,10.58
2018-04-14T01:27:52.763Z,10.60
2018-04-14T01:30:20.264Z,10.60
2018-04-14T01:32:47.778Z,10.61
2018-04-14T01:35:15.385Z,10.60
2018-04-14T01:37:44.790Z,10.60
2018-04-14T01:40:14.366Z,10.59
2018-04-14T01:42:47.680Z,10.57
2018-04-14T01:45:15.215Z,10.56
2018-04-14T01:47:42.759Z,10.55
2018-04-14T01:50:10.288Z,10.52
2018-04-14T01:52:37.931Z,10.50
2018-04-14T01:55:08.624Z,10.49
2018-04-14T01:57:37.353Z,10.48
2018-04-14T02:00:05.928Z,10.47
2018-04-14T02:02:33.455Z,10.46
2018-04-14T02:05:00.999Z,10.44
2018-04-14T02:07:28.514Z,10.42
2018-04-14T02:09:56.231Z,10.40
2018-04-14T02:12:26.187Z,10.37
2018-04-14T02:14:56.645Z,10.35
2018-04-14T02:17:26.263Z,10.32
2018-04-14T02:19:53.883Z,10.30
2018-04-14T02:22:21.427Z,10.26
2018-04-14T02:24:48.986Z,10.22
2018-04-14T02:27:16.586Z,10.19
2018-04-14T02:29:46.635Z,10.15
2018-04-14T02:32:14.177Z,10.11
2018-04-14T02:34:44.772Z,10.07
2018-04-14T02:37:12.340Z,10.03
2018-04-14T02:39:39.834Z,9.99
2018-04-14T02:42:07.451Z,9.96
2018-04-14T02:44:35.060Z,9.93
2018-04-14T02:47:04.433Z,9.89
2018-04-14T02:49:33.167Z,9.83
2018-04-14T02:52:01.785Z,9.79
2018-04-14T02:54:29.306Z,9.76
2018-04-14T02:56:56.854Z,9.73
2018-04-14T02:59:24.448Z,9.69
2018-04-14T03:01:52.063Z,9.65
2018-04-14T03:04:20.632Z,9.62
2018-04-14T03:06:50.697Z,9.58
2018-04-14T03:09:22.095Z,9.56
2018-04-14T03:11:49.619Z,9.52
2018-04-14T03:14:17.162Z,9.47
2018-04-14T03:16:44.691Z,9.45
2018-04-14T03:19:12.314Z,9.44
2018-04-14T03:21:40.986Z,9.43
2018-04-14T03:24:13.553Z,9.43
2018-04-14T03:26:42.054Z,9.43
2018-04-14T03:29:09.583Z,9.43
2018-04-14T03:31:37.099Z,9.42
2018-04-14T03:34:04.639Z,9.40
2018-04-14T03:36:32.255Z,9.39
2018-04-14T03:39:02.207Z,9.37
2018-04-14T03:41:32.582Z,9.36
2018-04-14T03:44:02.671Z,9.35
2018-04-14T03:46:30.190Z,9.35
2018-04-14T03:48:57.727Z,9.35
2018-04-14T03:51:25.255Z,9.36
2018-04-14T03:53:52.863Z,9.38
2018-04-14T03:56:22.463Z,9.40
2018-04-14T03:58:50.059Z,9.42
2018-04-14T04:01:18.211Z,9.44
2018-04-14T04:03:45.754Z,9.44
2018-04-14T04:06:13.267Z,9.44
2018-04-14T04:08:40.795Z,9.46
2018-04-14T04:11:08.470Z,9.48
2018-04-14T04:13:38.769Z,9.50
2018-04-14T04:16:08.371Z,9.52
2018-04-14T04:18:49.507Z,9.53
2018-04-14T04:21:28.763Z,9.54
2018-04-14T04:24:08.070Z,9.55
2018-04-14T04:26:35.656Z,9.56
2018-04-14T04:29:05.055Z,9.58
2018-04-14T04:31:33.575Z,9.58
2018-04-14T04:34:03.165Z,9.60
2018-04-14T04:36:33.453Z,9.60
2018-04-14T04:39:00.951Z,9.60
2018-04-14T04:41:28.502Z,9.62
2018-04-14T04:43:55.994Z,9.63
2018-04-14T04:46:25.758Z,9.65
2018-04-14T04:48:54.904Z,9.68
2018-04-14T04:51:24.540Z,9.69
2018-04-14T04:53:54.619Z,9.71
2018-04-14T04:56:22.158Z,9.72
2018-04-14T04:58:49.683Z,9.73
2018-04-14T05:01:17.354Z,9.74
2018-04-14T05:06:21.472Z,9.77
2018-04-14T05:08:53.659Z,9.78
2018-04-14T05:11:22.567Z,9.80
2018-04-14T05:13:50.106Z,9.81
2018-04-14T05:16:17.726Z,9.83
2018-04-14T05:18:45.243Z,9.84
2018-04-14T05:21:13.665Z,9.86
2018-04-14T05:23:42.746Z,9.87
2018-04-14T05:26:12.303Z,9.87
2018-04-14T05:28:42.435Z,9.87
2018-04-14T05:31:09.947Z,9.88
2018-04-14T05:33:37.499Z,9.90
2018-04-14T05:36:05.040Z,9.89
2018-04-14T05:38:33.492Z,9.90
2018-04-14T05:41:01.898Z,9.89
2018-04-14T05:43:30.459Z,9.89
2018-04-14T05:45:58.243Z,9.89
2018-04-14T05:48:26.763Z,9.88
2018-04-14T05:50:55.363Z,9.87
2018-04-14T05:53:22.871Z,9.87
2018-04-14T05:55:53.547Z,9.86
2018-04-14T05:58:37.693Z,9.87
2018-04-14T06:01:13.563Z,9.86
2018-04-14T06:03:48.979Z,9.85
2018-04-14T06:06:16.550Z,9.84
2018-04-14T06:08:44.095Z,9.83
2018-04-14T06:11:11.674Z,9.82
2018-04-14T06:13:42.707Z,9.81
2018-04-14T06:18:44.785Z,9.82
2018-04-14T06:21:12.989Z,9.82
2018-04-14T06:23:40.522Z,9.83
2018-04-14T06:26:08.032Z,9.85
2018-04-14T06:28:35.543Z,9.87
2018-04-14T06:31:04.781Z,9.88
2018-04-14T06:33:32.998Z,9.89
2018-04-14T06:36:04.389Z,9.89
2018-04-14T06:38:34.405Z,9.89
2018-04-14T06:41:02.298Z,9.91
2018-04-14T06:43:29.799Z,9.92
2018-04-14T06:45:57.355Z,9.94
2018-04-14T06:48:34.007Z,9.95
2018-04-14T06:53:42.812Z,9.96
2018-04-14T06:56:17.001Z,9.96
2018-04-14T06:58:44.544Z,9.96
2018-04-14T07:01:12.144Z,9.97
2018-04-14T07:03:39.670Z,9.97
2018-04-14T07:06:12.625Z,9.97
2018-04-14T07:08:42.772Z,9.97
2018-04-14T07:35:30.543Z,10.14
2018-04-14T07:37:58.100Z,10.15
2018-04-14T07:40:26.407Z,10.17
2018-04-14T07:42:57.492Z,10.20
2018-04-14T07:45:26.117Z,10.23
2018-04-14T07:47:53.619Z,10.25
2018-04-14T07:50:21.153Z,10.26
2018-04-14T07:52:48.728Z,10.28
2018-04-14T07:55:16.288Z,10.30
2018-04-14T07:57:45.417Z,10.35
2018-04-14T08:00:14.654Z,10.39
2018-04-14T08:02:42.328Z,10.46
2018-04-14T08:05:09.871Z,10.52
2018-04-14T08:07:37.446Z,10.58
2018-04-14T08:10:04.992Z,10.64
2018-04-14T08:12:32.583Z,10.69
2018-04-14T08:15:00.804Z,10.73
2018-04-14T08:17:28.764Z,10.79
2018-04-14T08:19:56.828Z,10.86
2018-04-14T08:22:24.415Z,10.91
2018-04-14T08:24:51.936Z,10.97
2018-04-14T08:27:19.444Z,11.05
2018-04-14T08:29:47.035Z,11.11
2018-04-14T08:32:14.643Z,11.19
2018-04-14T08:34:42.238Z,11.26
2018-04-14T08:37:13.185Z,11.35
2018-04-14T08:39:40.703Z,11.43
2018-04-14T08:42:08.222Z,11.50
2018-04-14T08:44:35.811Z,11.57
2018-04-14T08:47:03.379Z,11.63
2018-04-14T08:49:31.287Z,11.69
2018-04-14T08:52:01.785Z,11.75
2018-04-14T08:54:30.614Z,11.81
2018-04-14T08:56:58.167Z,11.85
2018-04-14T08:59:25.726Z,11.91
2018-04-14T09:01:53.249Z,11.98
2018-04-14T09:04:20.812Z,12.03
2018-04-14T09:06:48.759Z,12.07
2018-04-14T09:09:16.775Z,12.11
2018-04-14T09:11:45.259Z,12.16
2018-04-14T09:14:12.863Z,12.23
2018-04-14T09:16:40.449Z,12.29
2018-04-14T09:19:07.991Z,12.35
2018-04-14T09:21:35.600Z,12.39
2018-04-14T09:24:03.085Z,12.45
2018-04-14T09:26:30.615Z,12.49
2018-04-14T09:28:58.842Z,12.52
2018-04-14T09:31:26.398Z,12.51
2018-04-14T09:33:53.873Z,12.49
2018-04-14T09:36:21.471Z,12.47
2018-04-14T09:38:49.085Z,12.45
2018-04-14T09:49:17.569Z,12.32
2018-04-14T09:51:45.130Z,12.30
2018-04-14T09:54:12.682Z,12.28
2018-04-14T09:56:40.677Z,12.28
2018-04-14T09:59:30.741Z,12.29
2018-04-14T10:07:35.287Z,12.35
2018-04-14T10:10:02.877Z,12.42
2018-04-14T10:12:30.431Z,12.44
2018-04-14T10:22:52.099Z,12.59
2018-04-14T10:25:19.754Z,12.67
2018-04-14T10:27:47.313Z,12.77
2018-04-14T10:30:14.927Z,12.89
2018-04-14T10:41:50.579Z,13.21
2018-04-14T10:44:18.138Z,13.32
2018-04-14T10:46:45.681Z,13.40
2018-04-14T10:58:29.498Z,13.82
2018-04-14T11:00:57.019Z,13.89
2018-04-14T11:03:24.688Z,13.95
2018-04-14T11:16:24.112Z,14.53
2018-04-14T11:18:51.669Z,14.61
2018-04-14T11:21:19.287Z,14.63
2018-04-14T11:23:46.865Z,14.64
2018-04-14T11:26:14.541Z,14.68
2018-04-14T11:28:45.797Z,14.70
2018-04-14T11:31:14.431Z,14.71
2018-04-14T11:33:41.956Z,14.73
2018-04-14T11:36:09.485Z,14.75
2018-04-14T11:38:37.095Z,14.74
2018-04-14T11:41:04.853Z,14.77
2018-04-14T11:43:32.507Z,14.83
2018-04-14T11:46:00.124Z,14.89
2018-04-14T11:48:27.724Z,14.98
2018-04-14T11:50:55.257Z,15.03
2018-04-14T11:53:22.859Z,15.12
2018-04-14T11:55:50.387Z,15.23
2018-04-14T11:58:18.143Z,15.28
2018-04-14T12:00:45.699Z,15.36
2018-04-14T12:03:13.331Z,15.46
2018-04-14T12:05:40.920Z,15.58
2018-04-14T12:08:08.493Z,15.69
2018-04-14T12:10:36.017Z,15.83
2018-04-14T12:13:03.599Z,15.96
2018-04-14T12:15:31.220Z,16.09
2018-04-14T12:17:58.775Z,16.18
2018-04-14T12:20:26.503Z,16.22
2018-04-14T12:22:54.076Z,16.29
2018-04-14T12:25:21.692Z,16.40
2018-04-14T12:27:49.204Z,16.57
2018-04-14T12:30:16.727Z,16.79
2018-04-14T12:32:44.411Z,17.02
2018-04-14T12:35:12.171Z,17.23
2018-04-14T12:37:39.837Z,17.40
2018-04-14T12:40:07.515Z,17.54
2018-04-14T12:42:35.082Z,17.70
2018-04-14T12:45:02.600Z,17.82
2018-04-14T12:47:30.145Z,17.95
2018-04-14T12:49:57.725Z,18.03
2018-04-14T12:52:25.334Z,18.10
2018-04-14T12:54:52.959Z,18.19
2018-04-14T12:57:20.635Z,18.25
2018-04-14T12:59:48.179Z,18.18
2018-04-14T13:02:15.743Z,18.11
2018-04-14T13:04:44.293Z,18.19
2018-04-14T13:07:14.424Z,18.32
2018-04-14T13:09:45.869Z,18.38
2018-04-14T13:12:14.819Z,18.42
2018-04-14T13:14:42.583Z,18.51
2018-04-14T13:17:10.112Z,18.61
2018-04-14T13:19:37.647Z,18.72
2018-04-14T13:22:05.300Z,18.76
2018-04-14T13:24:36.825Z,18.81
2018-04-14T13:27:08.842Z,18.87
2018-04-14T13:29:40.757Z,18.93
2018-04-14T13:32:12.700Z,18.94
2018-04-14T13:34:40.267Z,18.96
2018-04-14T13:37:07.838Z,18.97
2018-04-14T13:39:35.408Z,19.00
2018-04-14T13:42:04.771Z,19.06
2018-04-14T13:44:36.967Z,19.13
2018-04-14T13:47:05.885Z,19.25
2018-04-14T13:49:33.415Z,19.33
2018-04-14T13:52:00.960Z,19.46
2018-04-14T13:54:28.525Z,19.50
2018-04-14T13:56:56.090Z,19.52
2018-04-14T13:59:26.045Z,19.58
2018-04-14T14:01:56.849Z,19.62
2018-04-14T14:04:26.808Z,19.68
2018-04-14T14:06:54.363Z,19.79
2018-04-14T14:09:21.873Z,19.85
2018-04-14T14:11:49.463Z,19.96
2018-04-14T14:14:17.072Z,20.07
2018-04-14T14:16:46.952Z,20.14
2018-04-14T14:19:14.633Z,20.17
2018-04-14T14:21:42.947Z,20.19
2018-04-14T14:24:10.747Z,20.27
2018-04-14T14:26:38.379Z,20.31
2018-04-14T14:29:05.997Z,20.28
2018-04-14T14:31:33.592Z,20.31
2018-04-14T14:34:01.143Z,20.33
2018-04-14T14:39:14.122Z,20.29
2018-04-14T14:41:43.198Z,20.32
2018-04-14T14:44:10.723Z,20.34
2018-04-14T14:46:38.287Z,20.34
2018-04-14T14:49:05.895Z,20.38
2018-04-14T14:51:33.632Z,20.45
2018-04-14T14:54:02.369Z,20.48
2018-04-14T14:56:30.484Z,20.53
2018-04-14T14:58:59.205Z,20.50
2018-04-14T15:01:26.760Z,20.55
2018-04-14T15:03:54.295Z,20.57
2018-04-14T15:06:21.926Z,20.58
2018-04-14T15:08:50.695Z,20.56
2018-04-14T15:11:18.352Z,20.54
2018-04-14T15:13:47.560Z,20.56
2018-04-14T15:16:16.152Z,20.56
2018-04-14T15:18:43.759Z,20.55
2018-04-14T15:21:12.663Z,20.60
2018-04-14T15:23:41.996Z,20.56
2018-04-14T15:26:10.611Z,20.57
2018-04-14T15:28:39.066Z,20.56
2018-04-14T15:31:06.707Z,20.56
2018-04-14T15:33:34.333Z,20.54
2018-04-14T15:36:01.858Z,20.54
2018-04-14T15:38:29.382Z,20.48
2018-04-14T15:40:56.918Z,20.41
2018-04-14T15:43:24.835Z,20.30
2018-04-14T15:45:52.999Z,20.24
2018-04-14T15:48:21.143Z,20.17
2018-04-14T15:50:49.023Z,20.17
2018-04-14T15:53:16.591Z,20.09
2018-04-14T15:55:44.130Z,20.07
2018-04-14T15:58:11.701Z,19.99
2018-04-14T16:00:41.099Z,20.01
2018-04-14T16:03:09.991Z,20.04
2018-04-14T16:05:38.857Z,20.06
2018-04-14T16:08:06.478Z,20.07
2018-04-14T16:10:34.005Z,20.01
2018-04-14T16:13:01.551Z,20.03
2018-04-14T16:15:29.113Z,20.08
2018-04-14T16:17:57.911Z,20.20
2018-04-14T16:20:29.228Z,20.30
2018-04-14T16:28:07.763Z,20.51
2018-04-14T16:30:35.307Z,20.62
2018-04-14T16:33:02.922Z,20.76
2018-04-14T16:35:30.519Z,20.90
2018-04-14T16:37:58.662Z,20.92
2018-04-14T16:40:33.027Z,20.99
2018-04-14T16:43:00.680Z,21.05
2018-04-14T16:45:28.207Z,21.15
2018-04-14T16:47:55.788Z,21.17
2018-04-14T16:50:23.386Z,21.17
2018-04-14T16:52:58.998Z,21.18
2018-04-14T16:55:26.739Z,21.22
2018-04-14T17:00:29.143Z,20.97
2018-04-14T17:02:56.693Z,20.93
2018-04-14T17:05:24.232Z,20.93
2018-04-14T17:07:51.863Z,20.89
2018-04-14T17:10:22.592Z,20.88
2018-04-14T17:12:53.167Z,20.76
2018-04-14T17:15:21.665Z,20.62
2018-04-14T17:17:49.284Z,20.41
2018-04-14T17:20:16.828Z,20.25
2018-04-14T17:22:44.388Z,20.13
2018-04-14T17:25:12.263Z,20.09
2018-04-14T17:27:41.080Z,20.01
2018-04-14T17:30:11.115Z,19.87
2018-04-14T17:32:41.165Z,19.75
2018-04-14T17:35:08.755Z,19.62
2018-04-14T17:37:36.295Z,19.50
2018-04-14T17:40:03.860Z,19.20
2018-04-14T17:42:31.418Z,18.92
2018-04-14T17:44:58.986Z,18.74
2018-04-14T17:47:26.609Z,18.61
2018-04-14T17:49:55.274Z,18.35
2018-04-14T17:52:23.820Z,18.21
2018-04-14T17:54:51.335Z,18.16
2018-04-14T17:57:18.854Z,18.03
2018-04-14T17:59:46.635Z,17.90
2018-04-14T18:07:49.340Z,17.23
2018-04-14T18:10:16.900Z,17.02
2018-04-14T18:12:44.432Z,16.88
2018-04-14T18:15:11.980Z,16.74
2018-04-14T18:22:50.475Z,16.20
2018-04-14T18:25:21.245Z,16.03
2018-04-14T18:27:48.800Z,15.88
2018-04-14T18:30:16.352Z,15.73
2018-04-14T18:32:43.887Z,15.58
2018-04-14T18:35:13.334Z,15.41
2018-04-14T18:37:45.503Z,15.27
2018-04-14T18:40:18.034Z,15.12
2018-04-14T18:42:47.016Z,14.98
2018-04-14T18:45:14.581Z,14.85
2018-04-14T18:47:42.112Z,14.72
2018-04-14T18:50:09.669Z,14.59
2018-04-14T18:52:38.290Z,14.47
2018-04-14T18:55:06.983Z,14.36
2018-04-14T18:57:34.640Z,14.26
2018-04-14T19:00:05.615Z,14.17
2018-04-14T19:02:33.187Z,14.06
2018-04-14T19:05:00.761Z,13.98
2018-04-14T19:07:28.328Z,13.87
2018-04-14T19:09:58.114Z,13.80
2018-04-14T19:12:26.561Z,13.73
2018-04-14T19:14:55.017Z,13.67
2018-04-14T19:17:33.085Z,13.60
2018-04-14T19:20:00.685Z,13.53
2018-04-14T19:22:28.202Z,13.46
2018-04-14T19:24:56.415Z,13.38
2018-04-14T19:27:27.094Z,13.31
2018-04-14T19:29:54.721Z,13.26
2018-04-14T19:32:23.128Z,13.19
2018-04-14T19:34:54.498Z,13.11
2018-04-14T19:37:22.067Z,13.05
2018-04-14T19:39:49.739Z,12.99
2018-04-14T19:42:17.407Z,12.93
2018-04-14T19:44:49.948Z,12.85
2018-04-14T19:47:33.248Z,12.76
2018-04-14T19:50:02.770Z,12.71
2018-04-14T19:52:30.406Z,12.64
2018-04-14T19:54:57.956Z,12.57
2018-04-14T19:57:25.531Z,12.52
2018-04-14T19:59:53.100Z,12.47
2018-04-14T20:02:23.175Z,12.42
2018-04-14T20:04:53.939Z,12.37
2018-04-14T20:07:34.760Z,12.30
2018-04-14T20:10:02.307Z,12.26
2018-04-14T20:12:29.931Z,12.21
2018-04-14T20:14:57.462Z,12.15
2018-04-14T20:17:29.493Z,12.11
2018-04-14T20:20:01.945Z,12.08
2018-04-14T20:22:34.155Z,12.04
2018-04-14T20:27:54.578Z,11.96
2018-04-14T20:30:22.160Z,11.94
2018-04-14T20:32:49.718Z,11.90
2018-04-14T20:35:21.021Z,11.84
2018-04-14T20:46:25.519Z,11.74
2018-04-14T20:48:53.090Z,11.75
2018-04-14T20:51:20.701Z,11.74
2018-04-14T21:02:44.133Z,11.77
2018-04-14T21:05:11.779Z,11.76
2018-04-14T21:07:39.327Z,11.77
2018-04-14T21:10:07.151Z,11.76
2018-04-14T21:17:46.173Z,11.72
2018-04-14T21:20:13.811Z,11.71
2018-04-14T21:22:41.425Z,11.71
2018-04-14T21:25:08.968Z,11.68
2018-04-14T21:27:53.215Z,11.66
2018-04-14T21:35:27.496Z,11.59
2018-04-14T21:37:55.051Z,11.58
2018-04-14T21:40:22.572Z,11.57
2018-04-14T21:42:50.197Z,11.57
2018-04-14T21:45:21.010Z,11.56
2018-04-14T21:47:51.153Z,11.56
2018-04-14T21:50:18.763Z,11.54
2018-04-14T21:52:49.014Z,11.53
2018-04-14T21:55:16.573Z,11.54
2018-04-14T21:57:44.132Z,11.53
2018-04-14T22:00:11.767Z,11.52
2018-04-14T22:02:41.025Z,11.53
2018-04-14T22:05:11.187Z,11.53
2018-04-14T22:07:46.004Z,11.53
2018-04-14T22:10:13.615Z,11.53
2018-04-14T22:12:41.230Z,11.52
2018-04-14T22:15:08.758Z,11.51
2018-04-14T22:17:36.322Z,11.49
2018-04-14T22:20:06.144Z,11.47
2018-04-14T22:22:35.020Z,11.45
2018-04-14T22:25:02.792Z,11.44
2018-04-14T22:27:30.399Z,11.42
2018-04-14T22:29:57.998Z,11.41
2018-04-14T22:32:25.564Z,11.38
2018-04-14T22:34:53.198Z,11.36
2018-04-14T22:37:24.981Z,11.34
2018-04-14T22:39:55.130Z,11.31
2018-04-14T22:42:22.848Z,11.31
2018-04-14T22:44:51.125Z,11.29
2018-04-14T22:47:18.659Z,11.25
2018-04-14T22:49:46.302Z,11.23
2018-04-14T22:52:13.863Z,11.22
2018-04-14T22:54:47.197Z,11.21
2018-04-14T22:57:22.220Z,11.20
2018-04-14T22:59:50.813Z,11.19
2018-04-14T23:02:18.355Z,11.17
2018-04-14T23:04:45.951Z,11.15
2018-04-14T23:07:13.510Z,11.12
2018-04-14T23:09:41.035Z,11.08
2018-04-14T23:12:13.039Z,11.05
2018-04-14T23:14:43.269Z,11.02
2018-04-14T23:17:18.803Z,11.01
2018-04-14T23:19:46.355Z,10.99
2018-04-14T23:22:15.971Z,10.96
2018-04-14T23:24:43.551Z,10.94
2018-04-14T23:27:11.152Z,10.93
2018-04-14T23:29:38.873Z,10.92
2018-04-14T23:32:09.340Z,10.90
2018-04-14T23:34:38.494Z,10.89
2018-04-14T23:37:06.037Z,10.87
2018-04-14T23:39:33.623Z,10.86
2018-04-14T23:42:01.151Z,10.86
2018-04-14T23:44:28.731Z,10.86
2018-04-14T23:47:03.018Z,10.86
2018-04-14T23:49:30.696Z,10.85
2018-04-14T23:52:01.004Z,10.86
2018-04-14T23:54:28.544Z,10.86
2018-04-14T23:56:56.103Z,10.86
2018-04-14T23:59:23.689Z,10.85
